Time;durP1;ratioP1;P1;durP2;ratioP2;P2;SDS_P1;SDS_P2;PMS_P1;PMS_P2;Temp;Humidity;BMP_temperature;BMP_pressure;BME280_temperature;BME280_humidity;BME280_pressure;Samples;Min_cycle;Max_cycle;Signal;HPM_P1;HPM_P2
2023/09/04 00:01:31;;;;;;;8.55;6.18;;;14.40;99.90;;;;;;5057792;28;20490;-86
2023/09/04 00:03:57;;;;;;;12.65;6.05;;;14.40;99.90;;;;;;5057800;28;20035;-86
2023/09/04 00:06:24;;;;;;;9.20;6.90;;;14.40;99.90;;;;;;5074520;28;20036;-86
2023/09/04 00:08:50;;;;;;;10.88;6.53;;;14.40;99.90;;;;;;5057629;28;20028;-86
2023/09/04 00:11:15;;;;;;;9.95;6.85;;;14.40;99.90;;;;;;5074242;28;20077;-86
2023/09/04 00:13:41;;;;;;;11.75;6.03;;;14.30;99.90;;;;;;5057825;28;20028;-86
2023/09/04 00:16:07;;;;;;;12.77;6.55;;;14.30;99.90;;;;;;5075577;28;20114;-86
2023/09/04 00:18:32;;;;;;;8.18;6.60;;;14.20;99.90;;;;;;5060876;28;20040;-86
2023/09/04 00:20:58;;;;;;;7.80;6.63;;;14.20;99.90;;;;;;5077929;28;20032;-86
2023/09/04 00:23:24;;;;;;;10.65;7.30;;;14.10;99.90;;;;;;5061697;28;20058;-87
2023/09/04 00:25:49;;;;;;;11.98;7.20;;;14.10;99.90;;;;;;5061949;28;20032;-87
2023/09/04 00:28:18;;;;;;;9.50;6.72;;;14.00;99.90;;;;;;5061474;28;20020;-86
2023/09/04 00:30:43;;;;;;;9.70;7.20;;;14.00;99.90;;;;;;5061378;28;20490;-86
2023/09/04 00:33:09;;;;;;;9.18;6.63;;;13.90;99.90;;;;;;5078113;28;20028;-87
2023/09/04 00:35:38;;;;;;;11.35;7.15;;;13.90;99.90;;;;;;5061498;28;20468;-85
2023/09/04 00:38:04;;;;;;;12.73;7.38;;;13.80;99.90;;;;;;5078220;28;20418;-86
2023/09/04 00:40:29;;;;;;;10.77;7.53;;;13.80;99.90;;;;;;5061266;28;20035;-86
2023/09/04 00:42:55;;;;;;;10.80;6.82;;;13.80;99.90;;;;;;5077577;28;20032;-86
2023/09/04 00:45:21;;;;;;;10.02;7.65;;;13.80;99.90;;;;;;5061466;28;20035;-87
2023/09/04 00:47:47;;;;;;;11.20;6.78;;;13.70;99.90;;;;;;5061277;28;20043;-86
2023/09/04 00:50:22;;;;;;;10.43;7.32;;;13.70;99.90;;;;;;5077818;28;20024;-86
2023/09/04 00:52:59;;;;;;;8.23;7.07;;;13.70;99.90;;;;;;5077835;28;20119;-86
2023/09/04 00:55:26;;;;;;;13.00;7.13;;;13.60;99.90;;;;;;5060528;28;20030;-87
2023/09/04 00:57:55;;;;;;;9.48;7.38;;;13.60;99.90;;;;;;5077188;28;20067;-86
2023/09/04 01:00:23;;;;;;;8.18;7.30;;;13.60;99.90;;;;;;5060635;28;20761;-86
2023/09/04 01:02:50;;;;;;;11.65;8.45;;;13.50;99.90;;;;;;5076830;28;20064;-86
2023/09/04 01:05:17;;;;;;;10.38;7.63;;;13.50;99.90;;;;;;5060286;28;20039;-86
2023/09/04 01:07:43;;;;;;;15.52;7.50;;;13.50;99.90;;;;;;5060427;28;20059;-87
2023/09/04 01:10:09;;;;;;;10.15;7.15;;;13.50;99.90;;;;;;5076448;28;20487;-86
2023/09/04 01:12:42;;;;;;;14.73;8.07;;;13.50;99.90;;;;;;5060143;28;20126;-87
2023/09/04 01:15:09;;;;;;;11.23;7.75;;;13.50;99.90;;;;;;5060492;28;20020;-87
2023/09/04 01:17:37;;;;;;;12.85;7.97;;;13.50;99.90;;;;;;5060229;28;20024;-86
2023/09/04 01:20:32;;;;;;;14.98;8.15;;;13.50;99.90;;;;;;5077356;28;20024;-86
2023/09/04 01:22:59;;;;;;;11.95;7.80;;;13.50;99.90;;;;;;5052293;28;20043;-85
2023/09/04 01:25:44;;;;;;;14.82;8.40;;;13.40;99.90;;;;;;5060532;28;20040;-86
2023/09/04 01:28:24;;;;;;;13.45;8.48;;;13.40;99.90;;;;;;5060214;28;20546;-87
2023/09/04 01:31:06;;;;;;;9.80;7.13;;;13.40;99.90;;;;;;5094458;28;20032;-86
2023/09/04 01:33:39;;;;;;;12.40;8.27;;;13.30;99.90;;;;;;5060417;28;20506;-87
2023/09/04 01:36:10;;;;;;;9.18;7.60;;;13.20;99.90;;;;;;5060461;28;20073;-86
2023/09/04 01:38:37;;;;;;;12.55;9.45;;;13.30;99.90;;;;;;5077193;28;20036;-85
2023/09/04 01:41:06;;;;;;;11.32;8.25;;;13.30;99.90;;;;;;5059956;28;20043;-86
2023/09/04 01:43:32;;;;;;;13.48;8.45;;;13.30;99.90;;;;;;5093370;28;20400;-86
2023/09/04 01:45:58;;;;;;;12.07;8.73;;;13.30;99.90;;;;;;5059347;28;20028;-86
2023/09/04 01:48:23;;;;;;;12.57;9.45;;;13.40;99.90;;;;;;5059446;28;20024;-86
2023/09/04 01:50:49;;;;;;;11.85;9.00;;;13.30;99.90;;;;;;5059518;28;20032;-86
2023/09/04 01:53:16;;;;;;;11.68;9.07;;;13.30;99.90;;;;;;5059246;28;20024;-87
2023/09/04 01:55:42;;;;;;;10.00;8.27;;;13.30;99.90;;;;;;5059843;28;20028;-87
2023/09/04 01:58:08;;;;;;;13.45;9.02;;;13.30;99.90;;;;;;5059782;28;20107;-86
2023/09/04 02:00:33;;;;;;;11.95;7.90;;;13.30;99.90;;;;;;5059505;28;20032;-86
2023/09/04 02:02:59;;;;;;;11.13;8.90;;;13.20;99.90;;;;;;5076339;28;20451;-86
2023/09/04 02:05:24;;;;;;;11.68;8.40;;;13.20;99.90;;;;;;5059386;28;20422;-87
2023/09/04 02:07:50;;;;;;;9.75;7.75;;;13.20;99.90;;;;;;5060062;28;20051;-85
2023/09/04 02:10:16;;;;;;;11.88;8.57;;;13.20;99.90;;;;;;5060503;28;20039;-87
2023/09/04 02:12:41;;;;;;;16.33;9.07;;;13.20;99.90;;;;;;5076973;28;20024;-87
2023/09/04 02:15:07;;;;;;;16.30;9.15;;;13.30;99.90;;;;;;5060036;28;20028;-86
2023/09/04 02:17:33;;;;;;;13.15;9.68;;;13.30;99.90;;;;;;5059850;28;20028;-86
2023/09/04 02:20:00;;;;;;;11.63;9.18;;;13.30;99.90;;;;;;5059931;28;20054;-86
2023/09/04 02:22:26;;;;;;;14.75;9.40;;;13.30;99.90;;;;;;5059920;28;20479;-86
2023/09/04 02:24:52;;;;;;;19.77;9.23;;;13.40;99.90;;;;;;5059810;28;20028;-85
2023/09/04 02:27:52;;;;;;;15.35;9.45;;;13.40;99.90;;;;;;5059604;28;20510;-86
2023/09/04 02:30:18;;;;;;;11.80;8.57;;;13.40;99.90;;;;;;5060312;28;20036;-86
2023/09/04 02:32:50;;;;;;;17.77;9.63;;;13.50;99.90;;;;;;5059205;28;20035;-87
2023/09/04 02:35:16;;;;;;;14.15;9.02;;;13.40;99.90;;;;;;5059486;28;20075;-86
2023/09/04 02:37:43;;;;;;;16.77;9.18;;;13.50;99.90;;;;;;5093712;28;20494;-85
2023/09/04 02:40:10;;;;;;;12.93;8.52;;;13.50;99.90;;;;;;5059152;28;20028;-86
2023/09/04 02:42:35;;;;;;;10.35;8.30;;;13.50;99.90;;;;;;5075842;28;20044;-86
2023/09/04 02:45:01;;;;;;;14.02;9.00;;;13.50;99.90;;;;;;5059421;28;20429;-87
2023/09/04 02:47:30;;;;;;;14.38;9.35;;;13.50;99.90;;;;;;5075773;28;20143;-85
2023/09/04 02:49:57;;;;;;;15.20;9.02;;;13.50;99.90;;;;;;5059040;28;20032;-86
2023/09/04 02:52:22;;;;;;;13.77;9.40;;;13.50;99.90;;;;;;5076054;28;20108;-86
2023/09/04 02:54:48;;;;;;;17.38;9.00;;;13.50;99.90;;;;;;5076293;28;20028;-86
2023/09/04 02:57:14;;;;;;;12.95;8.65;;;13.50;99.90;;;;;;5059065;28;20051;-85
2023/09/04 02:59:40;;;;;;;14.77;8.60;;;13.50;99.90;;;;;;5075235;28;20081;-85
2023/09/04 03:02:06;;;;;;;17.45;9.15;;;13.50;99.90;;;;;;5058519;28;20466;-85
2023/09/04 03:04:52;;;;;;;14.82;8.80;;;13.30;99.90;;;;;;5059226;28;20055;-87
2023/09/04 03:07:18;;;;;;;15.52;8.88;;;13.40;99.90;;;;;;5059010;28;20503;-85
2023/09/04 03:09:44;;;;;;;10.25;8.32;;;13.40;99.90;;;;;;5075857;28;20062;-85
2023/09/04 03:12:09;;;;;;;12.70;8.55;;;13.50;99.90;;;;;;5075824;28;20027;-86
2023/09/04 03:14:35;;;;;;;9.98;8.23;;;13.40;99.90;;;;;;5058943;28;20028;-85
2023/09/04 03:17:01;;;;;;;10.35;8.15;;;13.40;99.90;;;;;;5059332;28;20059;-85
2023/09/04 03:19:28;;;;;;;14.18;10.20;;;13.40;99.90;;;;;;5059868;28;20032;-85
2023/09/04 03:21:54;;;;;;;11.43;8.40;;;13.40;99.90;;;;;;5062314;28;20028;-86
2023/09/04 03:24:20;;;;;;;14.82;8.63;;;13.40;99.90;;;;;;5078720;28;20063;-85
2023/09/04 03:26:46;;;;;;;11.07;8.20;;;13.50;99.90;;;;;;5060783;28;20032;-84
2023/09/04 03:29:13;;;;;;;12.93;8.40;;;13.50;99.90;;;;;;5084175;28;20040;-85
2023/09/04 03:31:39;;;;;;;13.15;8.95;;;13.50;99.90;;;;;;5059371;28;20130;-85
2023/09/04 03:34:06;;;;;;;11.13;8.40;;;13.50;99.90;;;;;;5075599;28;20397;-85
2023/09/04 03:36:32;;;;;;;13.35;8.68;;;13.50;99.90;;;;;;5058940;28;20465;-85
2023/09/04 03:38:58;;;;;;;13.23;8.52;;;13.40;99.90;;;;;;5058806;28;20170;-85
2023/09/04 03:41:25;;;;;;;14.77;8.88;;;13.50;99.90;;;;;;5058564;28;20039;-85
2023/09/04 03:43:50;;;;;;;11.00;8.75;;;13.40;99.90;;;;;;5058384;28;20024;-85
2023/09/04 03:46:18;;;;;;;13.85;8.57;;;13.40;99.90;;;;;;5075904;28;20039;-85
2023/09/04 03:48:43;;;;;;;17.63;8.90;;;13.40;99.90;;;;;;5074974;28;20032;-85
2023/09/04 03:51:09;;;;;;;11.27;8.70;;;13.40;99.90;;;;;;5061707;28;20494;-85
2023/09/04 03:53:35;;;;;;;10.98;7.90;;;13.40;99.90;;;;;;5079523;28;20020;-85
2023/09/04 03:56:05;;;;;;;11.98;8.32;;;13.40;99.90;;;;;;5062485;28;20434;-85
2023/09/04 03:58:31;;;;;;;10.38;7.22;;;13.30;99.90;;;;;;5062222;28;20475;-85
2023/09/04 04:00:58;;;;;;;11.55;8.10;;;13.20;99.90;;;;;;5078822;28;20086;-85
2023/09/04 04:03:25;;;;;;;13.15;8.75;;;13.10;99.90;;;;;;5062312;28;20054;-84
2023/09/04 04:05:51;;;;;;;11.55;7.65;;;13.20;99.90;;;;;;5078732;28;20028;-85
2023/09/04 04:08:17;;;;;;;11.07;7.82;;;13.20;99.90;;;;;;5078269;28;20090;-85
2023/09/04 04:10:44;;;;;;;13.60;7.80;;;13.20;99.90;;;;;;5061427;28;20028;-85
2023/09/04 04:13:10;;;;;;;11.48;8.10;;;13.20;99.90;;;;;;5077875;28;20112;-85
2023/09/04 04:15:38;;;;;;;13.48;8.40;;;13.10;99.90;;;;;;5077131;28;20114;-86
2023/09/04 04:18:05;;;;;;;13.00;7.22;;;13.20;99.90;;;;;;5061029;28;20032;-86
2023/09/04 04:20:50;;;;;;;14.35;7.80;;;13.20;99.90;;;;;;5061377;28;20059;-85
2023/09/04 04:23:17;;;;;;;11.32;8.13;;;13.20;99.90;;;;;;5078344;28;20085;-86
2023/09/04 04:25:43;;;;;;;12.20;8.43;;;13.10;99.90;;;;;;5062047;28;20074;-85
2023/09/04 04:28:08;;;;;;;9.90;7.90;;;13.10;99.90;;;;;;5061732;28;20039;-84
2023/09/04 04:30:35;;;;;;;10.18;7.50;;;13.10;99.90;;;;;;5061707;28;20032;-86
2023/09/04 04:33:02;;;;;;;10.38;7.90;;;13.00;99.90;;;;;;5077877;28;20081;-86
2023/09/04 04:39:33;;;;;;;10.25;7.43;;;12.90;99.90;;;;;;5097008;28;20102;-86
2023/09/04 04:41:59;;;;;;;11.45;7.85;;;12.90;99.90;;;;;;5077916;28;20035;-85
2023/09/04 04:44:26;;;;;;;12.57;8.20;;;12.90;99.90;;;;;;5060940;28;20082;-85
2023/09/04 04:46:52;;;;;;;14.20;9.15;;;13.00;99.90;;;;;;5079076;28;20032;-87
2023/09/04 04:49:21;;;;;;;14.98;8.57;;;13.00;99.90;;;;;;5062674;28;20039;-87
2023/09/04 04:51:49;;;;;;;10.15;8.05;;;12.90;99.90;;;;;;5078916;28;20028;-88
2023/09/04 04:54:16;;;;;;;14.85;8.65;;;12.90;99.90;;;;;;5062276;28;20024;-88
2023/09/04 04:56:42;;;;;;;12.88;9.13;;;12.90;99.90;;;;;;5078408;28;20028;-88
2023/09/04 04:59:08;;;;;;;12.35;8.30;;;13.00;99.90;;;;;;5061492;28;20074;-87
2023/09/04 05:01:34;;;;;;;9.52;8.18;;;13.00;99.90;;;;;;5061138;28;20098;-88
2023/09/04 05:04:00;;;;;;;10.52;8.23;;;13.00;99.90;;;;;;5061602;28;20536;-87
2023/09/04 05:06:26;;;;;;;15.40;8.35;;;13.00;99.90;;;;;;5078095;28;20028;-86
2023/09/04 05:08:52;;;;;;;12.52;8.63;;;13.00;99.90;;;;;;5061225;28;20731;-87
2023/09/04 05:11:18;;;;;;;9.57;7.82;;;13.00;99.90;;;;;;5078367;28;20028;-87
2023/09/04 05:13:44;;;;;;;13.90;7.50;;;13.10;99.90;;;;;;5061415;28;20028;-87
2023/09/04 05:16:10;;;;;;;16.10;8.18;;;13.10;99.90;;;;;;5061555;28;20735;-88
2023/09/04 05:18:38;;;;;;;14.05;7.82;;;13.20;99.90;;;;;;5061903;28;20070;-87
2023/09/04 05:21:14;;;;;;;11.10;7.45;;;13.20;99.90;;;;;;5060937;28;20044;-86
2023/09/04 05:23:39;;;;;;;9.82;7.20;;;13.30;99.90;;;;;;5061111;28;20418;-87
2023/09/04 05:26:05;;;;;;;9.95;7.68;;;13.30;99.90;;;;;;5061126;28;20035;-88
2023/09/04 05:28:32;;;;;;;9.93;7.60;;;13.30;99.90;;;;;;5077874;28;20039;-87
2023/09/04 05:31:04;;;;;;;7.97;7.07;;;13.40;99.90;;;;;;5061544;28;20522;-87
2023/09/04 05:33:30;;;;;;;12.70;6.88;;;13.50;99.90;;;;;;5061066;28;20055;-87
2023/09/04 05:35:56;;;;;;;9.60;7.30;;;13.50;99.90;;;;;;5060923;28;20418;-87
2023/09/04 05:38:22;;;;;;;9.95;7.05;;;13.60;99.90;;;;;;5077831;28;20506;-87
2023/09/04 05:40:49;;;;;;;10.23;6.70;;;13.60;99.90;;;;;;5061251;28;20032;-87
2023/09/04 05:43:15;;;;;;;11.70;7.30;;;13.70;99.90;;;;;;5061063;28;20040;-86
2023/09/04 05:45:41;;;;;;;15.05;6.63;;;13.80;99.90;;;;;;5073328;28;20023;-86
2023/09/04 05:48:07;;;;;;;10.05;6.25;;;13.80;99.90;;;;;;5060900;28;20032;-87
2023/09/04 05:50:32;;;;;;;8.27;6.45;;;13.90;99.90;;;;;;5061702;28;20038;-88
2023/09/04 05:52:58;;;;;;;10.57;6.63;;;14.00;99.90;;;;;;5077529;28;20106;-88
2023/09/04 05:55:24;;;;;;;7.90;6.28;;;14.20;99.90;;;;;;5077605;28;20031;-87
2023/09/04 05:57:50;;;;;;;9.30;5.72;;;14.30;99.90;;;;;;5077488;28;20083;-86
2023/09/04 06:00:16;;;;;;;14.57;6.32;;;14.30;99.90;;;;;;5060290;28;20027;-87
2023/09/04 06:02:42;;;;;;;9.95;7.03;;;14.40;99.90;;;;;;5077066;28;20074;-86
2023/09/04 06:05:08;;;;;;;9.05;6.05;;;14.40;99.90;;;;;;5060970;28;20028;-87
2023/09/04 06:07:34;;;;;;;10.07;6.10;;;14.50;99.90;;;;;;5077278;28;20035;-87
2023/09/04 06:10:01;;;;;;;8.43;5.93;;;14.50;99.90;;;;;;5076406;28;20435;-87
2023/09/04 06:12:26;;;;;;;7.63;6.20;;;14.60;99.90;;;;;;5060293;28;20067;-87
2023/09/04 06:14:52;;;;;;;9.73;5.68;;;14.70;99.90;;;;;;5060786;28;20038;-87
2023/09/04 06:17:18;;;;;;;9.07;5.82;;;14.80;99.90;;;;;;5060372;28;20027;-86
2023/09/04 06:19:44;;;;;;;9.02;5.70;;;14.80;99.90;;;;;;5060378;28;20051;-87
2023/09/04 06:22:09;;;;;;;7.72;5.63;;;14.90;99.90;;;;;;5062222;28;20042;-86
2023/09/04 06:24:35;;;;;;;7.47;5.78;;;15.00;99.90;;;;;;5060971;28;20051;-87
2023/09/04 06:27:01;;;;;;;6.70;5.68;;;15.00;99.90;;;;;;5077148;28;20028;-87
2023/09/04 06:29:26;;;;;;;8.73;5.40;;;15.10;99.90;;;;;;5060745;28;20032;-86
2023/09/04 06:31:52;;;;;;;9.43;5.72;;;15.20;99.90;;;;;;5060142;28;20468;-88
2023/09/04 06:34:18;;;;;;;8.27;4.82;;;15.30;99.90;;;;;;5059448;28;20020;-87
2023/09/04 06:36:43;;;;;;;8.45;5.28;;;15.30;99.90;;;;;;5060684;28;20241;-87
2023/09/04 06:39:09;;;;;;;9.07;6.43;;;15.40;99.90;;;;;;5095266;28;20035;-87
2023/09/04 06:41:35;;;;;;;7.82;6.00;;;15.40;99.90;;;;;;5059763;28;20039;-87
2023/09/04 06:44:02;;;;;;;10.00;5.25;;;15.40;99.90;;;;;;5076040;28;20071;-87
2023/09/04 06:46:28;;;;;;;6.97;5.50;;;15.40;99.90;;;;;;5076911;28;20032;-87
2023/09/04 06:48:53;;;;;;;6.50;5.32;;;15.40;99.90;;;;;;5060670;28;20031;-88
2023/09/04 06:51:19;;;;;;;7.18;5.93;;;15.50;99.90;;;;;;5060053;28;20028;-87
2023/09/04 06:53:45;;;;;;;10.45;5.18;;;15.60;99.90;;;;;;5059417;28;20032;-87
2023/09/04 06:56:11;;;;;;;12.00;5.78;;;15.60;99.90;;;;;;5059384;28;20040;-87
2023/09/04 06:58:36;;;;;;;8.98;6.20;;;15.70;99.90;;;;;;5075993;28;20097;-87
2023/09/04 07:01:03;;;;;;;10.65;5.25;;;15.80;99.90;;;;;;5075697;28;20208;-88
2023/09/04 07:03:29;;;;;;;8.45;5.47;;;15.90;99.90;;;;;;5058806;28;20028;-87
2023/09/04 07:05:55;;;;;;;7.72;5.20;;;15.90;99.90;;;;;;5059270;28;20032;-88
2023/09/04 07:08:22;;;;;;;12.68;5.75;;;16.00;99.90;;;;;;5059386;28;20080;-89
2023/09/04 07:10:48;;;;;;;8.07;4.90;;;16.10;99.90;;;;;;5059462;28;20038;-88
2023/09/04 07:13:15;;;;;;;7.28;5.28;;;16.20;99.90;;;;;;5076222;28;20044;-89
2023/09/04 07:15:41;;;;;;;6.85;5.50;;;16.30;99.90;;;;;;5059733;28;20501;-87
2023/09/04 07:18:08;;;;;;;6.85;5.35;;;16.30;99.90;;;;;;5059390;28;20024;-88
2023/09/04 07:20:34;;;;;;;7.22;5.40;;;16.40;99.90;;;;;;5076083;28;20058;-87
2023/09/04 07:22:59;;;;;;;8.38;5.13;;;16.40;99.90;;;;;;5059570;28;20028;-88
2023/09/04 07:25:25;;;;;;;11.10;5.20;;;16.50;99.90;;;;;;5092642;28;20517;-88
2023/09/04 07:27:51;;;;;;;9.25;5.13;;;16.50;99.90;;;;;;5058984;28;20043;-88
2023/09/04 07:30:17;;;;;;;6.57;5.38;;;16.50;99.90;;;;;;5076454;28;20535;-87
2023/09/04 07:32:43;;;;;;;8.45;5.40;;;16.60;99.90;;;;;;5058953;28;20072;-87
2023/09/04 07:35:09;;;;;;;9.27;5.40;;;16.70;99.90;;;;;;5058783;28;20059;-88
2023/09/04 07:37:35;;;;;;;10.07;5.60;;;16.70;99.90;;;;;;5059010;28;20055;-88
2023/09/04 07:40:04;;;;;;;7.25;5.20;;;16.70;99.90;;;;;;5059379;28;20036;-87
2023/09/04 07:42:29;;;;;;;7.20;5.00;;;16.80;99.90;;;;;;5059292;28;20035;-88
2023/09/04 07:44:55;;;;;;;8.52;5.03;;;16.90;99.90;;;;;;5077446;28;20483;-87
2023/09/04 07:47:21;;;;;;;7.78;5.43;;;16.90;99.90;;;;;;5076189;28;20032;-88
2023/09/04 07:49:47;;;;;;;6.00;5.03;;;17.00;99.90;;;;;;5093600;28;20028;-86
2023/09/04 07:52:13;;;;;;;7.95;4.63;;;17.10;99.90;;;;;;5075354;28;20028;-88
2023/09/04 07:54:39;;;;;;;6.90;5.13;;;17.20;99.90;;;;;;5075883;28;20034;-87
2023/09/04 07:57:05;;;;;;;6.90;4.80;;;17.20;99.90;;;;;;5075535;28;20033;-87
2023/09/04 07:59:31;;;;;;;6.60;4.68;;;17.30;99.90;;;;;;5058342;28;20101;-88
2023/09/04 08:02:16;;;;;;;6.95;5.05;;;17.30;99.90;;;;;;5075799;28;20029;-87
2023/09/04 08:04:41;;;;;;;7.00;5.32;;;17.40;99.90;;;;;;5058711;28;20391;-88
2023/09/04 08:07:07;;;;;;;7.60;4.45;;;17.40;99.90;;;;;;5059843;28;20024;-88
2023/09/04 08:09:33;;;;;;;10.43;4.65;;;17.50;99.90;;;;;;5059245;28;20036;-85
2023/09/04 08:11:59;;;;;;;8.07;4.53;;;17.50;99.90;;;;;;5076284;28;20058;-90
2023/09/04 08:14:24;;;;;;;8.82;4.25;;;17.50;99.90;;;;;;5059866;28;20043;-88
2023/09/04 08:16:50;;;;;;;9.95;4.22;;;17.60;99.90;;;;;;5059486;28;20042;-89
2023/09/04 08:19:16;;;;;;;5.80;4.57;;;17.70;99.90;;;;;;5075822;28;20117;-88
2023/09/04 08:21:41;;;;;;;14.85;6.55;;;17.80;99.90;;;;;;5075146;28;20032;-88
2023/09/04 08:24:07;;;;;;;6.50;4.35;;;17.90;99.90;;;;;;5058664;28;20028;-88
2023/09/04 08:26:33;;;;;;;6.70;3.92;;;18.00;99.90;;;;;;5058631;28;20035;-88
2023/09/04 08:28:58;;;;;;;7.25;3.70;;;18.10;99.90;;;;;;5058640;28;20081;-87
2023/09/04 08:31:24;;;;;;;7.25;3.67;;;18.20;99.90;;;;;;5059359;28;20062;-88
2023/09/04 08:33:49;;;;;;;4.13;3.67;;;18.20;99.90;;;;;;5075558;28;20020;-89
2023/09/04 08:36:15;;;;;;;9.15;3.88;;;18.40;99.90;;;;;;5059278;28;20669;-88
2023/09/04 08:38:41;;;;;;;5.65;3.50;;;18.50;99.90;;;;;;5063644;28;20089;-88
2023/09/04 08:41:09;;;;;;;6.60;4.15;;;18.60;99.90;;;;;;5079016;28;20024;-88
2023/09/04 08:43:37;;;;;;;4.82;3.13;;;18.60;99.90;;;;;;5062465;28;20036;-88
2023/09/04 08:46:06;;;;;;;5.65;3.38;;;18.70;99.90;;;;;;5062643;28;20032;-88
2023/09/04 08:48:37;;;;;;;7.22;3.35;;;18.70;99.90;;;;;;5063238;28;20032;-88
2023/09/04 08:51:03;;;;;;;8.27;3.25;;;18.80;99.90;;;;;;5079394;28;20463;-88
2023/09/04 08:53:28;;;;;;;3.90;2.90;;;19.40;99.90;;;;;;5062686;28;20094;-89
2023/09/04 08:55:55;;;;;;;8.10;2.50;;;20.90;99.90;;;;;;5062373;28;20041;-87
2023/09/04 08:58:21;;;;;;;4.07;3.13;;;22.30;99.90;;;;;;5062646;28;20028;-88
2023/09/04 09:00:48;;;;;;;6.68;2.60;;;23.20;99.90;;;;;;5079395;28;20042;-88
2023/09/04 09:03:14;;;;;;;2.75;2.20;;;23.90;99.90;;;;;;5079179;28;20067;-88
2023/09/04 09:05:42;;;;;;;4.57;2.47;;;24.30;99.90;;;;;;5062483;28;20027;-88
2023/09/04 09:08:08;;;;;;;3.42;2.55;;;24.80;99.90;;;;;;5079010;28;20040;-88
2023/09/04 09:10:35;;;;;;;2.78;2.35;;;24.80;99.90;;;;;;5077989;28;20043;-87
2023/09/04 09:13:01;;;;;;;3.03;2.17;;;25.00;99.70;;;;;;5078513;28;20032;-88
2023/09/04 09:15:30;;;;;;;4.40;2.40;;;24.90;98.20;;;;;;5062148;28;20081;-89
2023/09/04 09:17:57;;;;;;;3.97;2.13;;;25.90;99.00;;;;;;5062741;28;20055;-89
2023/09/04 09:20:34;;;;;;;3.17;2.47;;;27.00;96.30;;;;;;5062084;28;20032;-87
2023/09/04 09:23:00;;;;;;;2.75;1.90;;;26.80;95.40;;;;;;5062562;28;20036;-88
2023/09/04 09:25:53;;;;;;;4.13;2.53;;;25.80;95.70;;;;;;5061087;28;20047;-89
2023/09/04 09:28:19;;;;;;;3.78;2.80;;;25.30;94.80;;;;;;5078612;28;20039;-88
2023/09/04 09:30:44;;;;;;;4.70;2.33;;;25.20;96.30;;;;;;5062319;28;20039;-89
2023/09/04 09:33:16;;;;;;;5.22;2.50;;;25.10;95.50;;;;;;5096399;28;20024;-87
2023/09/04 09:35:42;;;;;;;3.63;2.40;;;24.50;95.60;;;;;;5061914;28;20085;-88
2023/09/04 09:38:09;;;;;;;2.83;2.40;;;24.10;97.50;;;;;;5079135;28;20783;-90
2023/09/04 09:40:36;;;;;;;10.57;2.72;;;23.70;96.20;;;;;;5061706;28;20035;-87
2023/09/04 09:43:02;;;;;;;2.70;2.08;;;23.30;97.90;;;;;;5062201;28;20090;-88
2023/09/04 09:45:33;;;;;;;5.00;2.42;;;23.10;99.00;;;;;;5062503;28;20032;-88
2023/09/04 09:48:07;;;;;;;3.08;2.20;;;22.80;99.90;;;;;;5061612;28;20471;-88
2023/09/04 09:50:34;;;;;;;4.07;2.58;;;22.70;99.90;;;;;;5079429;28;20423;-89
2023/09/04 09:53:02;;;;;;;8.88;4.20;;;23.50;99.90;;;;;;5062615;28;20054;-89
2023/09/04 09:55:30;;;;;;;4.57;2.60;;;24.10;99.20;;;;;;5078895;28;20379;-90
2023/09/04 09:57:57;;;;;;;6.50;2.78;;;23.80;97.30;;;;;;5061917;28;20027;-87
2023/09/04 10:00:24;;;;;;;4.15;2.50;;;23.70;98.10;;;;;;5061378;28;20035;-89
2023/09/04 10:02:50;;;;;;;4.78;2.60;;;23.60;99.50;;;;;;5061366;28;20078;-89
2023/09/04 10:05:15;;;;;;;5.47;2.70;;;23.60;99.60;;;;;;5060827;28;20816;-88
2023/09/04 10:07:45;;;;;;;6.82;2.30;;;24.10;98.60;;;;;;5061835;28;20066;-88
2023/09/04 10:10:12;;;;;;;3.85;2.47;;;24.20;97.50;;;;;;5078244;28;20100;-87
2023/09/04 10:12:48;;;;;;;3.80;2.80;;;24.70;97.30;;;;;;5078144;28;20427;-88
2023/09/04 10:15:25;;;;;;;2.90;2.28;;;25.20;95.40;;;;;;5061771;28;20028;-88
2023/09/04 10:18:14;;;;;;;5.28;2.85;;;25.70;95.60;;;;;;5077911;28;20059;-90
2023/09/04 10:20:41;;;;;;;2.85;2.28;;;25.70;96.00;;;;;;5077768;28;20042;-88
2023/09/04 10:23:12;;;;;;;3.47;2.60;;;25.70;95.10;;;;;;5060963;28;20040;-89
2023/09/04 10:26:06;;;;;;;4.95;2.80;;;26.00;95.20;;;;;;5077577;28;20146;-88
2023/09/04 10:28:48;;;;;;;4.40;2.42;;;25.80;96.20;;;;;;5077647;28;20494;-87
2023/09/04 10:31:14;;;;;;;3.80;2.92;;;25.20;96.90;;;;;;5060333;28;20131;-88
2023/09/04 10:33:40;;;;;;;5.57;2.85;;;25.00;96.30;;;;;;5060532;28;20032;-90
2023/09/04 10:36:07;;;;;;;3.05;2.40;;;25.30;96.10;;;;;;5076754;28;20068;-89
2023/09/04 10:38:35;;;;;;;4.25;2.55;;;25.20;96.50;;;;;;5076861;28;20086;-88
2023/09/04 10:41:01;;;;;;;6.68;2.88;;;25.10;97.20;;;;;;5060908;28;20036;-88
2023/09/04 10:43:39;;;;;;;3.05;2.30;;;25.30;96.60;;;;;;5076006;28;20047;-89
2023/09/04 10:46:07;;;;;;;7.65;2.72;;;25.40;97.00;;;;;;5060750;28;20024;-88
2023/09/04 10:48:46;;;;;;;4.68;3.03;;;25.90;96.90;;;;;;5076686;28;20039;-88
2023/09/04 10:51:34;;;;;;;3.00;2.55;;;25.90;98.00;;;;;;5060265;28;20032;-89
2023/09/04 10:54:41;;;;;;;4.22;2.97;;;26.30;96.50;;;;;;5077427;28;20059;-88
2023/09/04 10:57:11;;;;;;;6.32;2.80;;;26.30;96.90;;;;;;5060666;28;20020;-89
2023/09/04 10:59:55;;;;;;;5.10;2.40;;;26.30;97.50;;;;;;5059558;28;20032;-90
2023/09/04 11:02:59;;;;;;;3.63;2.55;;;26.40;96.40;;;;;;5060046;28;20028;-89
2023/09/04 11:05:24;;;;;;;7.22;2.97;;;26.70;96.10;;;;;;5060331;28;20143;-89
2023/09/04 11:07:50;;;;;;;2.47;2.28;;;26.90;94.90;;;;;;5060828;28;20032;-89
2023/09/04 11:10:19;;;;;;;4.38;2.40;;;27.20;96.00;;;;;;5060149;28;20101;-90
2023/09/04 11:12:45;;;;;;;5.43;2.60;;;26.90;94.20;;;;;;5060104;28;20036;-88
2023/09/04 11:15:13;;;;;;;4.10;2.92;;;26.40;93.70;;;;;;5077124;28;20135;-91
2023/09/04 11:17:58;;;;;;;4.40;2.53;;;26.40;94.50;;;;;;5077169;28;20020;-90
2023/09/04 11:20:26;;;;;;;2.90;2.13;;;26.30;93.70;;;;;;5060705;28;20104;-89
2023/09/04 11:23:02;;;;;;;3.70;2.47;;;25.80;94.00;;;;;;5059973;28;20044;-89
2023/09/04 11:25:28;;;;;;;3.45;2.80;;;26.00;95.00;;;;;;5060151;28;20032;-90
2023/09/04 11:27:54;;;;;;;3.97;2.30;;;25.80;94.50;;;;;;5059696;28;20804;-90
2023/09/04 11:30:20;;;;;;;3.70;2.40;;;25.80;94.40;;;;;;5060036;28;20383;-89
2023/09/04 11:32:45;;;;;;;6.93;2.65;;;25.70;94.80;;;;;;5060148;28;20081;-90
2023/09/04 11:35:13;;;;;;;3.65;2.15;;;25.90;94.90;;;;;;5060280;28;20028;-89
2023/09/04 11:37:50;;;;;;;8.95;2.58;;;26.10;93.90;;;;;;5059502;28;20032;-90
2023/09/04 11:40:16;;;;;;;3.30;2.22;;;26.20;92.60;;;;;;5076430;28;20117;-89
2023/09/04 11:42:42;;;;;;;3.25;2.60;;;26.30;92.60;;;;;;5076310;28;20036;-89
2023/09/04 11:45:09;;;;;;;4.80;2.25;;;26.90;92.20;;;;;;5076973;28;20047;-88
2023/09/04 11:47:35;;;;;;;5.25;2.20;;;27.40;90.20;;;;;;5076798;28;20038;-90
2023/09/04 11:50:01;;;;;;;6.68;2.38;;;27.60;88.30;;;;;;5059196;28;20127;-87
2023/09/04 11:52:39;;;;;;;3.53;2.10;;;27.30;88.20;;;;;;5059277;28;20420;-89
2023/09/04 11:55:35;;;;;;;5.00;2.25;;;27.20;89.30;;;;;;5059351;28;20028;-88
2023/09/04 11:58:03;;;;;;;3.53;2.45;;;27.20;90.00;;;;;;5059322;28;20032;-89
2023/09/04 12:00:39;;;;;;;3.13;2.38;;;27.20;86.80;;;;;;5059401;28;20122;-89
2023/09/04 12:03:05;;;;;;;2.40;2.20;;;26.90;85.20;;;;;;5077168;28;20043;-90
2023/09/04 12:05:33;;;;;;;2.70;2.20;;;26.70;87.40;;;;;;5076111;28;20376;-88
2023/09/04 12:07:58;;;;;;;4.57;2.37;;;26.40;89.10;;;;;;5093243;28;20070;-89
2023/09/04 12:10:24;;;;;;;3.05;1.88;;;26.60;89.60;;;;;;5060501;28;20071;-89
2023/09/04 12:12:52;;;;;;;3.05;2.20;;;26.50;87.20;;;;;;5063652;28;20459;-89
2023/09/04 12:15:27;;;;;;;2.38;2.00;;;26.70;88.00;;;;;;5063523;28;20032;-88
2023/09/04 12:17:53;;;;;;;3.65;2.45;;;26.60;90.40;;;;;;5063917;28;20078;-87
2023/09/04 12:20:19;;;;;;;3.30;2.17;;;26.60;87.70;;;;;;5065102;28;20036;-87
2023/09/04 12:22:56;;;;;;;4.07;2.30;;;26.30;86.00;;;;;;5063335;28;20039;-88
2023/09/04 12:25:44;;;;;;;2.42;2.00;;;26.40;85.20;;;;;;5079875;28;20036;-87
2023/09/04 12:28:12;;;;;;;2.95;2.30;;;26.50;87.30;;;;;;5063884;28;20032;-89
2023/09/04 12:30:45;;;;;;;3.85;2.30;;;26.60;88.80;;;;;;5063610;28;20035;-89
2023/09/04 12:33:13;;;;;;;4.53;2.38;;;26.70;85.60;;;;;;5080135;28;20035;-89
2023/09/04 12:35:40;;;;;;;4.32;2.08;;;26.60;86.30;;;;;;5063738;28;20024;-88
2023/09/04 12:38:06;;;;;;;6.55;3.22;;;26.50;90.20;;;;;;5082190;28;20028;-90
2023/09/04 12:40:32;;;;;;;2.65;2.20;;;26.70;87.00;;;;;;5080860;28;20383;-88
2023/09/04 12:42:59;;;;;;;3.05;2.28;;;26.60;82.30;;;;;;5062196;28;20043;-89
2023/09/04 12:45:24;;;;;;;6.25;2.60;;;26.20;80.60;;;;;;5062630;28;20024;-89
2023/09/04 12:47:50;;;;;;;4.13;2.67;;;26.20;84.70;;;;;;5062907;28;20364;-84
2023/09/04 12:50:16;;;;;;;3.10;2.22;;;26.10;82.50;;;;;;5098234;28;20028;-89
2023/09/04 12:52:46;;;;;;;3.05;2.40;;;26.20;83.30;;;;;;5079931;28;20024;-89